Time;durP1;ratioP1;P1;durP2;ratioP2;P2;SDS_P1;SDS_P2;PMS_P1;PMS_P2;Temp;Humidity;BMP_temperature;BMP_pressure;BME280_temperature;BME280_humidity;BME280_pressure;Samples;Min_cycle;Max_cycle;Signal;HPM_P1;HPM_P2
2022/04/22 00:00:38;;;;;;;4.28;2.98;;;;;;;6.44;76.63;99034.11;1814719;79;21238;-42
2022/04/22 00:03:06;;;;;;;3.00;2.60;;;;;;;6.39;76.80;99027.61;1814402;79;21540;-42
2022/04/22 00:05:34;;;;;;;4.47;3.30;;;;;;;6.36;76.98;99026.95;1814487;79;20990;-41
2022/04/22 00:08:02;;;;;;;4.00;3.42;;;;;;;6.38;77.11;99030.11;1814039;79;20935;-42
2022/04/22 00:10:30;;;;;;;6.70;3.98;;;;;;;6.39;77.34;99028.96;1814101;79;21066;-42
2022/04/22 00:12:59;;;;;;;5.22;3.50;;;;;;;6.36;77.46;99028.86;1814039;79;21002;-41
2022/04/22 00:15:26;;;;;;;4.58;3.60;;;;;;;6.34;77.56;99031.13;1814060;79;21065;-42
2022/04/22 00:17:53;;;;;;;5.28;4.33;;;;;;;6.34;77.71;99028.43;1814215;79;20919;-42
2022/04/22 00:20:22;;;;;;;5.42;4.65;;;;;;;6.34;77.89;99033.23;1814151;79;21654;-42
2022/04/22 00:22:50;;;;;;;5.12;4.50;;;;;;;6.29;78.12;99024.06;1814273;79;21002;-41
2022/04/22 00:25:18;;;;;;;5.03;4.22;;;;;;;6.29;78.33;99024.06;1814220;79;21246;-42
2022/04/22 00:27:45;;;;;;;6.75;5.60;;;;;;;6.34;78.28;99027.84;1814220;79;20923;-42
2022/04/22 00:30:12;;;;;;;8.28;5.58;;;;;;;6.35;78.40;99024.03;1814190;79;21005;-42
2022/04/22 00:32:40;;;;;;;7.40;5.42;;;;;;;6.34;78.51;99027.84;1814120;79;20958;-42
2022/04/22 00:35:07;;;;;;;6.58;4.97;;;;;;;6.32;78.64;99027.41;1814176;79;21034;-42
2022/04/22 00:37:36;;;;;;;6.37;4.92;;;;;;;6.35;78.64;99028.08;1814301;79;21128;-42
2022/04/22 00:40:04;;;;;;;6.55;5.47;;;;;;;6.40;78.50;99020.33;1814136;79;21005;-42
2022/04/22 00:42:31;;;;;;;6.62;5.60;;;;;;;6.39;78.50;99026.86;1814211;79;20938;-41
2022/04/22 00:44:58;;;;;;;7.80;5.35;;;;;;;6.37;78.55;99027.19;1813958;79;20923;-42
2022/04/22 00:47:25;;;;;;;6.08;5.20;;;;;;;6.38;78.44;99024.72;1813989;79;21081;-42
2022/04/22 00:49:51;;;;;;;6.10;5.00;;;;;;;6.38;78.33;99015.30;1814078;79;21269;-42
2022/04/22 00:52:20;;;;;;;6.78;5.37;;;;;;;6.39;78.39;99013.39;1819613;78;21215;-42
2022/04/22 00:54:48;;;;;;;6.75;5.22;;;;;;;6.37;78.52;99005.64;1831658;78;20993;-42
2022/04/22 00:57:18;;;;;;;6.80;5.58;;;;;;;6.39;78.49;99008.01;1831594;78;20958;-42
2022/04/22 00:59:45;;;;;;;6.05;5.45;;;;;;;6.44;78.35;99009.09;1831665;78;21543;-42
2022/04/22 01:02:12;;;;;;;8.45;6.50;;;;;;;6.45;78.38;99012.02;1831826;78;21198;-41
2022/04/22 01:10:08;;;;;;;7.80;6.33;;;;;;;6.36;78.55;99005.41;1752560;78;21065;-41
2022/04/22 01:12:36;;;;;;;7.75;6.75;;;;;;;6.40;78.59;99006.86;1831552;78;21002;-42
2022/04/22 01:15:06;;;;;;;8.63;7.08;;;;;;;6.36;78.68;99012.15;1831371;78;23088;-42
2022/04/22 01:17:33;;;;;;;7.72;6.10;;;;;;;6.31;78.86;99007.00;1831752;78;20986;-42
2022/04/22 01:19:59;;;;;;;9.10;7.17;;;;;;;6.28;79.01;99003.64;1831453;78;21329;-41
2022/04/22 01:22:27;;;;;;;8.50;7.15;;;;;;;6.29;78.99;99003.09;1831442;78;20962;-42
2022/04/22 01:25:00;;;;;;;9.45;7.70;;;;;;;6.27;79.09;98996.69;1831546;78;20986;-41
2022/04/22 01:27:31;;;;;;;9.80;6.67;;;;;;;6.23;79.24;99005.23;1831864;78;20969;-41
2022/04/22 01:30:01;;;;;;;9.80;7.15;;;;;;;6.21;79.37;99000.73;1831531;78;20957;-42
2022/04/22 01:32:29;;;;;;;8.00;6.65;;;;;;;6.26;79.27;99000.50;1831473;78;21069;-41
2022/04/22 01:34:56;;;;;;;8.55;7.05;;;;;;;6.25;79.34;98994.88;1831434;78;21349;-41
2022/04/22 01:37:23;;;;;;;9.78;7.20;;;;;;;6.24;79.34;99002.77;1831426;78;21017;-41
2022/04/22 01:39:49;;;;;;;8.23;6.60;;;;;;;6.25;79.24;98998.92;1831472;78;21230;-41
2022/04/22 01:42:18;;;;;;;8.20;6.60;;;;;;;6.28;79.10;98989.41;1831476;78;20954;-41
2022/04/22 01:44:46;;;;;;;;;;;;;;;6.29;78.97;98994.45;1834330;78;20942;-41
2022/04/22 01:47:12;;;;;;;8.55;6.90;;;;;;;6.25;79.21;98996.23;1831542;78;20105;-41
2022/04/22 01:49:39;;;;;;;9.08;7.00;;;;;;;6.16;79.58;98993.44;1831694;78;21041;-41
2022/04/22 01:52:07;;;;;;;10.10;7.92;;;;;;;6.22;79.54;98992.88;1830807;78;21125;-42
2022/04/22 01:54:35;;;;;;;11.70;7.97;;;;;;;6.29;79.37;98989.63;1826677;78;21001;-42
2022/04/22 01:57:04;;;;;;;10.48;8.30;;;;;;;6.28;79.37;98984.80;1826248;78;20997;-42
2022/04/22 01:59:30;;;;;;;10.75;7.55;;;;;;;6.22;79.41;98986.16;1826751;78;21030;-42
2022/04/22 02:01:58;;;;;;;9.18;7.05;;;;;;;6.20;79.60;98983.00;1826499;78;21053;-42
2022/04/22 02:04:25;;;;;;;10.38;8.10;;;;;;;6.23;79.68;98982.34;1826408;78;21302;-42
2022/04/22 02:06:52;;;;;;;10.25;7.53;;;;;;;6.22;79.86;98979.98;1826490;78;21009;-42
2022/04/22 02:09:20;;;;;;;7.95;6.60;;;;;;;6.20;79.92;98982.22;1826359;78;20958;-41
2022/04/22 02:11:48;;;;;;;8.45;6.97;;;;;;;6.21;80.01;98986.48;1826459;78;21112;-41
2022/04/22 02:14:14;;;;;;;8.38;7.20;;;;;;;6.26;79.92;98984.34;1826526;78;20938;-42
2022/04/22 02:16:43;;;;;;;8.95;7.30;;;;;;;6.27;80.08;98985.92;1826580;78;21544;-42
2022/04/22 02:19:10;;;;;;;9.43;7.75;;;;;;;6.25;80.13;98973.35;1826406;78;20918;-42
2022/04/22 02:21:37;;;;;;;11.28;8.05;;;;;;;6.26;80.13;98976.83;1824389;78;21030;-42
2022/04/22 02:24:06;;;;;;;9.45;8.23;;;;;;;6.30;80.18;98975.02;1803840;79;20955;-42
2022/04/22 02:28:31;;;;;;;10.93;8.40;;;;;;;6.29;80.29;98981.55;1803894;79;20979;-42
2022/04/22 02:29:02;;;;;;;11.48;8.13;;;;;;;6.27;80.41;98985.92;1799492;79;21135;-42
2022/04/22 02:31:30;;;;;;;9.40;7.92;;;;;;;6.33;80.42;98981.88;1803682;79;21490;-42
2022/04/22 02:33:57;;;;;;;11.20;8.70;;;;;;;6.42;80.32;98985.22;1803945;79;20998;-41
2022/04/22 02:36:23;;;;;;;11.63;9.63;;;;;;;6.44;80.33;98984.86;1803684;79;21070;-42
2022/04/22 02:38:50;;;;;;;12.07;9.33;;;;;;;6.44;80.31;98975.44;1804083;79;21627;-42
2022/04/22 02:46:50;;;;;;;12.78;10.20;;;;;;;6.44;80.44;98981.61;1798994;79;21042;-42
2022/04/22 02:49:17;;;;;;;11.22;9.23;;;;;;;6.39;80.78;98976.45;1804013;79;21477;-42
2022/04/22 02:51:43;;;;;;;11.33;9.83;;;;;;;6.37;80.92;98981.41;1803743;79;20979;-42
2022/04/22 02:54:11;;;;;;;13.30;11.22;;;;;;;6.42;80.88;98986.56;1811915;78;21287;-42
2022/04/22 02:56:39;;;;;;;11.50;9.98;;;;;;;6.39;81.10;98985.88;1813835;79;20999;-42
2022/04/22 02:59:06;;;;;;;13.15;10.20;;;;;;;6.41;81.18;98986.89;1813849;78;20953;-42
2022/04/22 03:01:36;;;;;;;13.98;10.85;;;;;;;6.44;81.10;98989.69;1813878;79;20960;-42
2022/04/22 03:04:05;;;;;;;14.05;10.80;;;;;;;6.44;81.28;98982.95;1813771;79;20988;-42
2022/04/22 03:06:32;;;;;;;11.57;9.98;;;;;;;6.42;81.49;98986.56;1813901;79;21228;-42
2022/04/22 03:08:59;;;;;;;10.72;9.55;;;;;;;6.42;81.56;98993.30;1813746;78;21012;-42
2022/04/22 03:11:26;;;;;;;12.28;11.03;;;;;;;6.49;81.54;98985.41;1813820;79;21004;-42
2022/04/22 03:13:53;;;;;;;12.73;10.40;;;;;;;6.52;81.60;98988.78;1813881;79;20973;-42
2022/04/22 03:16:26;;;;;;;11.57;10.25;;;;;;;6.53;81.50;98989.57;1813979;79;21498;-42
2022/04/22 03:18:54;;;;;;;11.20;10.00;;;;;;;6.54;81.56;98993.25;1813888;78;20905;-42
2022/04/22 03:21:26;;;;;;;13.25;10.98;;;;;;;6.59;81.45;98997.61;1813924;79;21861;-42
2022/04/22 03:23:50;;;;;;;12.98;10.60;;;;;;;6.55;81.62;98999.42;1813520;78;20917;-42
2022/04/22 03:26:18;;;;;;;13.83;10.40;;;;;;;6.56;81.61;99001.00;1814071;79;21037;-42
2022/04/22 03:28:46;;;;;;;13.30;10.48;;;;;;;6.61;81.72;99007.49;1814380;78;21021;-42
2022/04/22 03:31:15;;;;;;;12.55;11.10;;;;;;;6.62;81.72;99010.97;1813956;79;21008;-42
2022/04/22 03:33:41;;;;;;;12.30;10.88;;;;;;;6.60;81.85;99015.91;1814006;79;20890;-42
2022/04/22 03:36:10;;;;;;;12.53;10.80;;;;;;;6.59;81.84;99012.42;1813918;79;20913;-42
2022/04/22 03:38:36;;;;;;;11.97;10.58;;;;;;;6.63;81.82;99013.89;1814033;79;21017;-42
2022/04/22 03:41:04;;;;;;;13.68;10.70;;;;;;;6.64;81.95;99011.40;1814208;78;21538;-42
2022/04/22 03:43:32;;;;;;;11.43;9.63;;;;;;;6.60;81.99;99009.95;1814265;79;21240;-42
2022/04/22 03:45:59;;;;;;;13.10;11.25;;;;;;;6.65;81.96;99013.76;1814116;79;21012;-42
2022/04/22 03:48:26;;;;;;;13.58;12.00;;;;;;;6.69;81.99;99009.81;1814019;79;21545;-42
2022/04/22 03:50:53;;;;;;;12.45;10.35;;;;;;;6.67;82.09;99010.73;1814040;79;20961;-42
2022/04/22 03:53:19;;;;;;;12.55;10.63;;;;;;;6.69;82.08;99011.16;1813711;78;21558;-42
2022/04/22 03:55:47;;;;;;;12.95;11.53;;;;;;;6.74;82.01;99010.36;1808685;79;23126;-42
2022/04/22 03:58:17;;;;;;;12.27;11.00;;;;;;;6.75;81.99;99007.89;1813975;79;21566;-42
2022/04/22 04:00:50;;;;;;;12.13;9.85;;;;;;;6.71;82.10;99012.95;1814076;78;20898;-42
2022/04/22 04:03:23;;;;;;;13.00;11.12;;;;;;;6.71;82.25;99012.95;1813901;78;21008;-41
2022/04/22 04:05:51;;;;;;;13.62;12.03;;;;;;;6.73;82.21;99013.41;1814293;79;21522;-42
2022/04/22 04:08:21;;;;;;;15.55;11.08;;;;;;;6.73;82.33;99006.68;1813944;78;21075;-42
2022/04/22 04:16:22;;;;;;;14.35;12.10;;;;;;;6.84;82.26;99005.05;1813993;78;21530;-42
2022/04/22 04:18:50;;;;;;;11.97;10.43;;;;;;;6.79;82.37;99003.38;1813903;79;21273;-42
2022/04/22 04:24:04;;;;;;;12.65;11.35;;;;;;;6.91;82.33;99000.66;1814040;79;20986;-42
2022/04/22 04:26:31;;;;;;;13.28;11.70;;;;;;;6.95;82.14;99008.83;1814281;79;20925;-42
2022/04/22 04:28:58;;;;;;;11.83;10.63;;;;;;;6.95;82.22;99013.66;1813955;79;21028;-42
2022/04/22 04:31:27;;;;;;;11.75;10.28;;;;;;;7.01;82.10;99022.28;1813938;79;20957;-42
2022/04/22 04:33:53;;;;;;;14.58;12.23;;;;;;;7.08;81.82;99021.67;1813960;79;21246;-42
2022/04/22 04:36:20;;;;;;;14.93;12.03;;;;;;;7.11;81.76;99019.66;1813850;79;21011;-42
2022/04/22 04:38:47;;;;;;;13.08;11.73;;;;;;;7.10;81.68;99024.27;1814050;78;20965;-42
2022/04/22 04:41:13;;;;;;;13.50;10.65;;;;;;;7.13;81.63;99015.47;1813915;79;20929;-42
2022/04/22 04:43:41;;;;;;;14.58;11.20;;;;;;;7.19;81.46;99022.19;1813989;79;20977;-42
2022/04/22 04:46:09;;;;;;;16.25;12.43;;;;;;;7.24;81.27;99028.68;1813988;79;20956;-42
2022/04/22 04:48:37;;;;;;;15.80;12.53;;;;;;;7.25;81.18;99023.52;1813992;79;20968;-42
2022/04/22 04:51:06;;;;;;;13.58;11.12;;;;;;;7.24;81.16;99025.20;1814070;78;20972;-42
2022/04/22 04:53:34;;;;;;;13.20;11.38;;;;;;;7.25;80.98;99024.86;1814085;78;21219;-42
2022/04/22 04:56:01;;;;;;;13.83;12.00;;;;;;;7.29;80.82;99030.34;1814109;79;21016;-42
2022/04/22 04:58:28;;;;;;;14.05;12.43;;;;;;;7.25;80.88;99027.56;1814268;78;21753;-42
2022/04/22 05:00:56;;;;;;;13.83;11.22;;;;;;;7.22;81.07;99030.14;1814018;79;20956;-42
2022/04/22 05:03:22;;;;;;;13.98;10.82;;;;;;;7.21;81.21;99037.44;1814105;79;21481;-42
2022/04/22 05:05:49;;;;;;;13.25;11.78;;;;;;;7.28;81.11;99035.51;1814045;78;20988;-42
2022/04/22 05:08:17;;;;;;;14.63;13.13;;;;;;;7.30;81.20;99023.27;1814163;79;21494;-42
2022/04/22 05:10:44;;;;;;;14.55;13.05;;;;;;;7.29;81.24;99031.13;1814081;79;21517;-42
2022/04/22 05:13:11;;;;;;;15.72;12.43;;;;;;;7.27;81.32;99033.37;1813760;79;21503;-42
2022/04/22 05:15:43;;;;;;;15.00;12.10;;;;;;;7.31;81.29;99035.59;1813908;79;20965;-41
2022/04/22 05:18:08;;;;;;;16.00;12.67;;;;;;;7.35;81.16;99034.36;1813899;79;21591;-42
2022/04/22 05:20:36;;;;;;;16.70;13.13;;;;;;;7.33;81.21;99036.05;1813835;78;20909;-42
2022/04/22 05:23:04;;;;;;;15.70;13.68;;;;;;;7.30;81.40;99041.35;1813895;79;21240;-41
2022/04/22 05:25:32;;;;;;;17.37;13.28;;;;;;;7.28;81.50;99040.34;1813853;79;20941;-42
2022/04/22 05:28:00;;;;;;;17.62;13.00;;;;;;;7.35;81.50;99036.50;1813850;79;21516;-42
2022/04/22 05:33:13;;;;;;;14.78;12.53;;;;;;;7.38;81.54;99052.53;1813841;79;20981;-42
2022/04/22 05:35:41;;;;;;;15.23;12.65;;;;;;;7.38;81.53;99045.80;1813890;79;21245;-42
2022/04/22 05:38:09;;;;;;;17.05;14.18;;;;;;;7.39;81.49;99044.11;1813749;78;20941;-42
2022/04/22 05:40:38;;;;;;;17.32;13.88;;;;;;;7.39;81.45;99034.67;1813899;79;21537;-42
2022/04/22 05:43:06;;;;;;;14.65;13.10;;;;;;;7.37;81.54;99043.66;1813853;79;20989;-42
2022/04/22 05:45:34;;;;;;;13.95;12.35;;;;;;;7.41;81.27;99051.27;1814354;78;21025;-42
2022/04/22 05:48:00;;;;;;;14.98;12.78;;;;;;;7.50;80.93;99066.53;1813841;79;21885;-41
2022/04/22 05:50:29;;;;;;;15.53;13.10;;;;;;;7.54;80.79;99068.75;1813787;79;20961;-42
2022/04/22 05:52:57;;;;;;;17.95;13.85;;;;;;;7.56;80.88;99064.56;1813881;78;20985;-42
2022/04/22 05:55:27;;;;;;;16.12;12.58;;;;;;;7.57;80.67;99072.09;1804124;79;21082;-42
2022/04/22 05:57:55;;;;;;;14.28;12.68;;;;;;;7.58;80.75;99066.92;1802885;79;21075;-42
2022/04/22 06:00:25;;;;;;;15.38;13.28;;;;;;;7.68;80.68;99074.52;1802962;79;20943;-42
2022/04/22 06:02:56;;;;;;;16.80;15.00;;;;;;;7.72;80.58;99074.03;1802913;79;20983;-42
2022/04/22 06:05:25;;;;;;;16.10;13.98;;;;;;;7.69;80.67;99073.39;1802889;79;20987;-42
2022/04/22 06:10:40;;;;;;;15.00;12.68;;;;;;;7.72;80.66;99078.87;1802644;79;21497;-41
2022/04/22 06:13:09;;;;;;;16.52;14.70;;;;;;;7.77;80.43;99088.62;1802655;78;21043;-41
2022/04/22 06:15:37;;;;;;;18.05;15.32;;;;;;;7.74;80.67;99096.07;1802830;79;20991;-42
2022/04/22 06:18:05;;;;;;;18.85;15.05;;;;;;;7.72;80.76;99094.27;1802583;79;20947;-42
2022/04/22 06:20:34;;;;;;;16.40;14.23;;;;;;;7.71;80.90;99092.70;1802665;79;21006;-41
2022/04/22 06:23:02;;;;;;;16.97;14.70;;;;;;;7.75;80.85;99100.31;1802940;79;21505;-42
2022/04/22 06:25:30;;;;;;;19.92;17.05;;;;;;;7.77;80.86;99102.11;1802935;79;20990;-42
2022/04/22 06:27:59;;;;;;;19.75;16.12;;;;;;;7.75;81.12;99109.76;1802832;79;21592;-42
2022/04/22 06:30:27;;;;;;;16.87;15.05;;;;;;;7.73;81.20;99107.42;1802841;79;21010;-42
2022/04/22 06:32:56;;;;;;;19.42;16.73;;;;;;;7.78;81.22;99111.22;1802968;79;21532;-42
2022/04/22 06:35:24;;;;;;;18.65;16.37;;;;;;;7.81;81.28;99108.38;1803187;79;21039;-42
2022/04/22 06:37:52;;;;;;;17.85;15.03;;;;;;;7.81;81.39;99117.26;1803166;79;21069;-42
2022/04/22 06:45:54;;;;;;;20.45;18.25;;;;;;;7.92;81.26;99126.98;1802866;79;20924;-42
2022/04/22 06:48:30;;;;;;;17.27;15.32;;;;;;;7.90;81.53;99127.89;1802886;79;21518;-42
2022/04/22 06:50:56;;;;;;;20.90;16.75;;;;;;;7.93;81.46;99131.82;1802989;79;21105;-42
2022/04/22 06:53:23;;;;;;;20.77;18.25;;;;;;;8.00;81.25;99138.17;1779637;79;20963;-42
2022/04/22 06:55:50;;;;;;;20.82;17.87;;;;;;;8.02;80.97;99141.88;1768924;79;20975;-42
2022/04/22 06:58:18;;;;;;;20.85;17.40;;;;;;;8.01;81.06;99137.05;1768725;81;21047;-42
2022/04/22 07:00:47;;;;;;;17.75;15.40;;;;;;;8.04;81.08;99141.73;1768783;81;21033;-42
2022/04/22 07:03:16;;;;;;;18.92;16.87;;;;;;;8.06;80.92;99140.84;1768853;81;21202;-42
2022/04/22 07:05:45;;;;;;;20.80;17.90;;;;;;;8.07;80.93;99141.06;1764291;81;20983;-42
2022/04/22 07:08:14;;;;;;;19.93;17.53;;;;;;;8.05;81.10;99142.53;1768963;81;21111;-42
2022/04/22 07:10:44;;;;;;;20.60;17.48;;;;;;;8.08;81.29;99149.39;1768745;81;20971;-42
2022/04/22 07:13:13;;;;;;;19.10;17.05;;;;;;;8.16;81.29;99145.72;1768882;81;24128;-42
2022/04/22 07:15:41;;;;;;;19.65;17.55;;;;;;;8.19;81.28;99149.63;1769155;81;21825;-42
2022/04/22 07:18:10;;;;;;;19.80;17.45;;;;;;;8.20;81.34;99149.86;1768885;81;20967;-42
2022/04/22 07:20:39;;;;;;;22.48;18.65;;;;;;;8.22;81.11;99159.75;1769380;81;21050;-42
2022/04/22 07:23:07;;;;;;;21.27;18.07;;;;;;;8.26;80.91;99160.06;1768871;80;20947;-42
2022/04/22 07:25:36;;;;;;;;;;;;;;;8.29;80.96;99159.91;1771641;81;20996;-42
2022/04/22 07:28:06;;;;;;;22.95;18.92;;;;;;;8.27;80.94;99154.88;1768949;81;20511;-42
2022/04/22 07:30:33;;;;;;;19.80;17.70;;;;;;;8.21;81.35;99163.02;1769011;81;20987;-42
2022/04/22 07:33:01;;;;;;;21.62;19.15;;;;;;;8.27;81.22;99156.23;1769002;81;21051;-42
2022/04/22 07:35:31;;;;;;;23.75;19.98;;;;;;;8.32;80.94;99159.83;1769003;81;21064;-42
2022/04/22 07:38:00;;;;;;;21.62;18.82;;;;;;;8.32;81.03;99163.88;1769057;81;21090;-42
2022/04/22 07:40:29;;;;;;;21.23;17.82;;;;;;;8.28;81.05;99163.17;1768963;81;21506;-42
2022/04/22 07:48:21;;;;;;;24.12;20.00;;;;;;;8.52;81.25;99169.59;1768943;81;21026;-42
2022/04/22 07:50:48;;;;;;;22.17;18.90;;;;;;;8.56;81.09;99173.94;1768971;81;21007;-42
2022/04/22 07:53:16;;;;;;;18.90;16.90;;;;;;;8.59;80.71;99169.17;1768943;81;21195;-42
2022/04/22 07:55:43;;;;;;;22.02;18.10;;;;;;;8.69;80.68;99168.64;1770528;80;20984;-42
2022/04/22 07:58:13;;;;;;;21.87;19.15;;;;;;;8.79;80.09;99184.09;1771319;81;21011;-42
2022/04/22 08:00:40;;;;;;;24.72;21.42;;;;;;;8.81;80.04;99174.48;1771169;81;20986;-42
2022/04/22 08:03:09;;;;;;;22.62;19.25;;;;;;;8.83;79.97;99177.63;1771145;81;21308;-42
2022/04/22 08:05:40;;;;;;;20.45;17.85;;;;;;;8.83;79.84;99174.14;1771167;81;21287;-42
2022/04/22 08:08:07;;;;;;;24.90;20.55;;;;;;;8.86;79.57;99175.56;1771072;81;20982;-42
2022/04/22 08:10:35;;;;;;;25.25;20.02;;;;;;;8.89;79.59;99179.50;1771144;81;20904;-42
2022/04/22 08:13:07;;;;;;;22.55;20.15;;;;;;;8.87;79.54;99184.46;1771145;81;21090;-42
2022/04/22 08:15:34;;;;;;;21.42;18.82;;;;;;;8.89;79.52;99189.75;1771161;81;21113;-42
2022/04/22 08:18:04;;;;;;;23.05;20.57;;;;;;;8.94;79.27;99190.83;1771117;81;21612;-42
2022/04/22 08:20:35;;;;;;;25.20;22.13;;;;;;;8.98;79.18;99191.69;1771118;81;21616;-42
2022/04/22 08:23:04;;;;;;;24.55;20.62;;;;;;;8.99;79.03;99189.77;1771192;81;21641;-42
2022/04/22 08:25:31;;;;;;;25.70;20.08;;;;;;;9.00;79.05;99191.34;1771063;81;21106;-42
2022/04/22 08:27:58;;;;;;;24.27;20.72;;;;;;;9.08;79.19;99195.20;1771210;81;21110;-42
2022/04/22 08:30:26;;;;;;;23.47;20.72;;;;;;;9.21;79.08;99198.55;1771277;81;21122;-42
2022/04/22 08:32:53;;;;;;;26.25;21.12;;;;;;;9.23;78.83;99195.50;1771335;81;20924;-42
2022/04/22 08:35:21;;;;;;;23.92;20.17;;;;;;;9.22;78.54;99186.60;1771753;79;20983;-42
2022/04/22 08:37:48;;;;;;;22.90;20.35;;;;;;;9.23;78.05;99196.86;1771365;81;21050;-42
2022/04/22 08:40:15;;;;;;;26.20;22.13;;;;;;;9.22;77.99;99204.75;1771249;81;21055;-42
2022/04/22 08:42:44;;;;;;;27.05;22.13;;;;;;;9.23;78.19;99199.56;1771385;81;21291;-42
2022/04/22 08:45:12;;;;;;;26.62;22.70;;;;;;;9.23;78.30;99203.63;1771387;80;21023;-42
2022/04/22 08:50:29;;;;;;;25.43;20.35;;;;;;;9.21;78.55;99197.77;1771353;80;21501;-42
2022/04/22 08:53:04;;;;;;;25.95;21.48;;;;;;;9.26;78.57;99200.98;1771316;81;22059;-42
2022/04/22 08:55:33;;;;;;;26.12;21.90;;;;;;;9.29;78.71;99203.00;1771300;81;20936;-42
2022/04/22 08:58:01;;;;;;;27.85;22.25;;;;;;;9.27;78.64;99200.42;1771061;81;20999;-42
2022/04/22 09:00:30;;;;;;;26.82;20.68;;;;;;;9.24;78.23;99214.09;1771274;81;21561;-42
2022/04/22 09:02:58;;;;;;;25.82;21.27;;;;;;;9.21;77.64;99212.08;1771394;81;21466;-42
2022/04/22 09:05:25;;;;;;;29.05;23.50;;;;;;;9.21;77.82;99207.23;1771150;81;21098;-42
2022/04/22 09:07:53;;;;;;;31.30;23.55;;;;;;;9.19;77.86;99210.88;1771354;81;21232;-42
2022/04/22 09:10:20;;;;;;;26.65;21.95;;;;;;;9.18;78.19;99216.06;1770989;81;21013;-42
2022/04/22 09:12:52;;;;;;;27.30;20.57;;;;;;;9.19;78.40;99210.88;1771385;81;21545;-42
2022/04/22 09:15:23;;;;;;;28.32;22.87;;;;;;;9.21;77.84;99217.48;1771263;81;21560;-42
2022/04/22 09:17:57;;;;;;;25.43;22.55;;;;;;;9.19;77.80;99221.13;1771047;81;21042;-42
2022/04/22 09:20:20;;;;;;;28.00;23.57;;;;;;;9.14;77.87;99223.55;1769788;81;21801;-42
2022/04/22 09:22:48;;;;;;;26.10;21.87;;;;;;;9.13;77.97;99222.53;1770972;79;21030;-42
2022/04/22 09:25:25;;;;;;;25.82;21.90;;;;;;;9.15;78.26;99215.63;1771041;81;20912;-42
2022/04/22 09:27:52;;;;;;;28.35;23.60;;;;;;;9.14;78.39;99216.78;1771346;81;20947;-42
2022/04/22 09:30:20;;;;;;;27.98;23.35;;;;;;;9.12;78.42;99212.28;1771011;81;21640;-42
2022/04/22 09:32:48;;;;;;;27.35;22.00;;;;;;;9.13;78.56;99218.48;1770999;81;21023;-42
2022/04/22 09:35:23;;;;;;;24.57;21.05;;;;;;;9.14;78.58;99222.76;1770843;81;20916;-42
2022/04/22 09:43:38;;;;;;;25.62;21.55;;;;;;;9.13;78.39;99235.49;1770994;81;21035;-42
2022/04/22 09:46:06;;;;;;;25.50;21.15;;;;;;;9.13;78.38;99228.73;1771497;81;21065;-43
2022/04/22 09:48:46;;;;;;;24.72;21.05;;;;;;;9.18;78.40;99241.20;1770936;81;21632;-42
2022/04/22 09:51:27;;;;;;;27.93;23.65;;;;;;;9.19;78.37;99232.52;1770891;81;21016;-43
2022/04/22 09:54:05;;;;;;;32.98;23.95;;;;;;;9.13;78.62;99231.44;1771360;81;21571;-43
2022/04/22 09:56:33;;;;;;;30.40;22.60;;;;;;;9.12;78.64;99239.89;1769429;79;21030;-42
2022/04/22 09:59:22;;;;;;;26.65;22.98;;;;;;;9.18;78.54;99233.65;1768915;81;21228;-43
2022/04/22 10:01:50;;;;;;;25.92;23.07;;;;;;;9.24;78.80;99235.73;1747796;81;20944;-42
2022/04/22 10:04:19;;;;;;;27.05;21.57;;;;;;;9.29;79.17;99233.32;1768867;81;21125;-43
2022/04/22 10:06:47;;;;;;;26.62;21.90;;;;;;;9.34;78.99;99236.54;1769220;81;21023;-43
2022/04/22 10:09:14;;;;;;;27.13;22.58;;;;;;;9.45;78.81;99235.39;1768984;81;21043;-43
2022/04/22 10:11:41;;;;;;;27.80;23.62;;;;;;;9.53;78.83;99241.19;1769134;81;21573;-43
2022/04/22 10:14:09;;;;;;;29.50;23.07;;;;;;;9.57;78.60;99243.39;1768812;81;21537;-43
2022/04/22 10:16:38;;;;;;;26.20;21.80;;;;;;;9.60;78.38;99241.31;1769121;81;20999;-43
2022/04/22 10:19:07;;;;;;;26.43;22.57;;;;;;;9.64;78.32;99240.03;1769047;81;21533;-43
2022/04/22 10:21:33;;;;;;;26.27;22.55;;;;;;;9.71;78.21;99241.54;1768842;81;21011;-43
2022/04/22 10:24:00;;;;;;;28.60;22.77;;;;;;;9.74;77.55;99240.25;1768837;81;21140;-43
2022/04/22 10:26:29;;;;;;;26.05;21.80;;;;;;;9.76;77.64;99242.05;1768673;81;21517;-43
2022/04/22 10:28:58;;;;;;;25.67;21.60;;;;;;;9.85;77.57;99248.02;1769133;81;20967;-43
2022/04/22 10:31:25;;;;;;;25.05;21.40;;;;;;;9.91;77.12;99245.81;1768853;81;21055;-43
2022/04/22 10:33:52;;;;;;;29.75;23.62;;;;;;;9.91;76.56;99249.31;1718625;81;21326;-43
2022/04/22 10:36:19;;;;;;;29.85;24.12;;;;;;;9.89;76.24;99249.44;1768707;81;21120;-43
2022/04/22 10:38:50;;;;;;;27.62;22.13;;;;;;;9.88;76.76;99248.66;1769296;81;20979;-43
2022/04/22 10:41:23;;;;;;;25.68;22.27;;;;;;;9.91;76.90;99256.08;1769051;81;21039;-42
2022/04/22 10:49:44;;;;;;;25.57;20.72;;;;;;;9.92;77.08;99262.28;1769227;81;21508;-43
2022/04/22 10:52:19;;;;;;;26.40;21.45;;;;;;;9.93;76.99;99259.20;1769100;81;21015;-42
2022/04/22 10:54:59;;;;;;;26.68;22.22;;;;;;;9.95;76.79;99258.85;1769121;81;21329;-42
2022/04/22 10:57:31;;;;;;;28.80;23.47;;;;;;;9.93;76.99;99258.41;1768300;81;21022;-43
2022/04/22 11:00:17;;;;;;;23.60;20.20;;;;;;;9.90;77.26;99254.51;1769283;81;21059;-43
2022/04/22 11:02:46;;;;;;;24.10;20.97;;;;;;;9.89;77.30;99259.70;1769044;81;20956;-43
2022/04/22 11:05:25;;;;;;;24.65;21.40;;;;;;;9.96;77.39;99251.73;1768773;81;20996;-43
2022/04/22 11:11:19;;;;;;;26.20;21.23;;;;;;;10.03;77.52;99244.30;1805763;78;22560;-42
2022/04/22 11:13:49;;;;;;;22.93;20.05;;;;;;;9.96;77.78;99251.73;1772915;80;20974;-42
2022/04/22 11:16:30;;;;;;;25.75;21.37;;;;;;;10.06;77.70;99253.64;1780060;80;20991;-42
2022/04/22 11:19:24;;;;;;;27.90;22.90;;;;;;;10.12;77.52;99239.44;1780007;80;20975;-42
2022/04/22 11:21:55;;;;;;;24.60;21.10;;;;;;;10.14;77.59;99241.79;1780024;80;21026;-42
2022/04/22 11:24:33;;;;;;;24.85;20.15;;;;;;;10.13;77.66;99242.36;1779882;80;21531;-42
2022/04/22 11:27:08;;;;;;;23.38;20.57;;;;;;;10.18;77.22;99243.45;1780088;80;21871;-42
2022/04/22 11:29:37;;;;;;;25.48;21.80;;;;;;;10.21;76.84;99238.69;1779946;80;21524;-42
2022/04/22 11:32:14;;;;;;;29.40;22.82;;;;;;;10.21;76.94;99236.55;1779987;80;20974;-42
2022/04/22 11:35:01;;;;;;;25.35;20.17;;;;;;;10.19;76.91;99236.11;1777457;80;21021;-42
2022/04/22 11:37:29;;;;;;;23.00;19.67;;;;;;;10.17;76.78;99245.94;1779958;80;21021;-42
2022/04/22 11:39:55;;;;;;;24.65;20.40;;;;;;;10.22;76.46;99242.94;1779991;80;20991;-42
2022/04/22 11:42:24;;;;;;;27.10;21.37;;;;;;;10.24;76.51;99233.11;1779887;80;20939;-42
2022/04/22 11:45:03;;;;;;;25.77;21.10;;;;;;;10.24;76.25;99239.88;1780098;80;20928;-42
2022/04/22 11:47:31;;;;;;;23.18;19.17;;;;;;;10.24;75.92;99238.53;1780425;80;21509;-42
2022/04/22 11:49:59;;;;;;;21.30;18.73;;;;;;;10.24;75.72;99235.82;1779888;80;21536;-42
2022/04/22 11:52:29;;;;;;;23.70;19.60;;;;;;;10.25;75.44;99241.45;1779982;80;21006;-42
2022/04/22 11:55:01;;;;;;;26.12;21.27;;;;;;;10.25;75.65;99234.11;1779971;80;21269;-42
2022/04/22 11:57:37;;;;;;;22.58;19.75;;;;;;;10.26;75.55;99228.88;1779918;80;20927;-42
2022/04/22 12:05:48;;;;;;;24.63;20.65;;;;;;;10.43;75.28;99232.49;1779910;80;21022;-42
2022/04/22 12:08:16;;;;;;;23.12;19.90;;;;;;;10.49;75.65;99230.27;1779879;80;20959;-42
2022/04/22 12:10:50;;;;;;;23.95;17.92;;;;;;;10.53;75.60;99232.46;1738734;80;20972;-42
2022/04/22 12:13:17;;;;;;;21.00;17.67;;;;;;;10.60;75.13;99233.92;1713003;83;20984;-42
2022/04/22 12:15:48;;;;;;;24.18;19.60;;;;;;;10.71;75.21;99231.39;1713043;83;21467;-42
2022/04/22 12:20:45;;;;;;;25.23;19.20;;;;;;;10.85;74.62;99231.61;1850750;76;22044;-42
2022/04/22 12:23:13;;;;;;;20.17;16.77;;;;;;;10.83;73.97;99229.28;1817879;79;21009;-42
2022/04/22 12:25:57;;;;;;;21.45;17.35;;;;;;;10.86;73.60;99227.19;1818044;79;20919;-42
2022/04/22 12:28:26;;;;;;;21.90;18.23;;;;;;;10.92;72.88;99232.30;1817943;79;20982;-42
2022/04/22 12:30:53;;;;;;;21.90;18.85;;;;;;;10.86;73.01;99231.26;1817887;79;21005;-42
2022/04/22 12:33:23;;;;;;;22.37;18.60;;;;;;;10.82;72.98;99237.77;1817854;79;21418;-42
2022/04/22 12:36:07;;;;;;;21.68;16.12;;;;;;;10.78;72.93;99234.23;1817941;79;20978;-42
2022/04/22 12:38:37;;;;;;;20.15;17.00;;;;;;;10.77;72.98;99238.86;1817721;79;21134;-42